Time;durP1;ratioP1;P1;durP2;ratioP2;P2;SDS_P1;SDS_P2;PMS_P1;PMS_P2;Temp;Humidity;BMP_temperature;BMP_pressure;BME280_temperature;BME280_humidity;BME280_pressure;Samples;Min_cycle;Max_cycle;Signal;HPM_P1;HPM_P2
2022/07/30 00:02:08;;;;;;;;;;;;;;;20.45;70.76;99323.69;1672550;84;20137;-74
2022/07/30 00:04:36;;;;;;;;;;;;;;;20.42;70.53;99322.81;1684925;84;20150;-74
2022/07/30 00:07:03;;;;;;;;;;;;;;;20.35;70.47;99320.25;1684046;84;21483;-74
2022/07/30 00:09:29;;;;;;;;;;;;;;;20.28;70.63;99323.06;1684829;84;20090;-74
2022/07/30 00:11:56;;;;;;;;;;;;;;;20.22;70.81;99316.41;1684133;84;20123;-74
2022/07/30 00:14:22;;;;;;;;;;;;;;;20.16;70.96;99321.40;1683061;84;20085;-74
2022/07/30 00:16:50;;;;;;;;;;;;;;;20.12;71.08;99316.19;1673269;84;20086;-74
2022/07/30 00:19:21;;;;;;;;;;;;;;;20.08;71.14;99313.65;1684934;84;21091;-74
2022/07/30 00:21:47;;;;;;;;;;;;;;;20.05;71.17;99318.20;1684812;84;20127;-76
2022/07/30 00:24:13;;;;;;;;;;;;;;;20.03;71.18;99319.77;1684032;84;20127;-74
2022/07/30 00:26:40;;;;;;;;;;;;;;;20.01;71.18;99312.44;1684152;84;20091;-75
2022/07/30 00:29:06;;;;;;;;;;;;;;;19.99;71.18;99313.20;1684863;84;20126;-74
2022/07/30 00:31:33;;;;;;;;;;;;;;;19.96;71.27;99311.48;1684853;84;21826;-74
2022/07/30 00:34:00;;;;;;;;;;;;;;;19.93;71.33;99309.25;1683018;83;20424;-74
2022/07/30 00:36:27;;;;;;;;;;;;;;;19.89;71.34;99308.92;1683794;84;20145;-74
2022/07/30 00:38:53;;;;;;;;;;;;;;;19.85;71.43;99307.73;1683658;84;20087;-73
2022/07/30 00:41:19;;;;;;;;;;;;;;;19.82;71.46;99306.02;1684973;84;20428;-74
2022/07/30 00:43:46;;;;;;;;;;;;;;;19.80;71.45;99301.38;1661470;85;21213;-74
2022/07/30 00:46:13;;;;;;;;;;;;;;;19.76;71.43;99298.88;1674695;84;20110;-74
2022/07/30 00:48:40;;;;;;;;;;;;;;;19.76;71.41;99298.35;1684387;84;20122;-74
2022/07/30 00:51:07;;;;;;;;;;;;;;;19.78;71.31;99294.05;1683096;83;20099;-74
2022/07/30 00:53:35;;;;;;;;;;;;;;;19.80;71.19;99291.41;1684349;84;20086;-74
2022/07/30 00:56:02;;;;;;;;;;;;;;;19.81;71.08;99296.29;1684820;84;21107;-74
2022/07/30 00:58:28;;;;;;;;;;;;;;;19.79;71.07;99294.36;1683405;84;20115;-74
2022/07/30 01:00:56;;;;;;;;;;;;;;;19.78;71.12;99291.36;1683110;84;20464;-75
2022/07/30 01:03:22;;;;;;;;;;;;;;;19.78;71.18;99291.36;1683655;84;20147;-76
2022/07/30 01:05:50;;;;;;;;;;;;;;;19.77;71.15;99290.53;1685022;84;20119;-73
2022/07/30 01:08:16;;;;;;;;;;;;;;;19.77;71.17;99287.83;1684091;84;21148;-76
2022/07/30 01:10:44;;;;;;;;;;;;;;;19.80;71.17;99283.84;1684321;84;20123;-74
2022/07/30 01:13:12;;;;;;;;;;;;;;;19.82;71.07;99287.12;1684873;84;20115;-74
2022/07/30 01:15:39;;;;;;;;;;;;;;;19.86;71.13;99285.61;1684890;84;20102;-73
2022/07/30 01:18:07;;;;;;;;;;;;;;;19.88;70.96;99279.44;1682076;84;20184;-74
2022/07/30 01:20:37;;;;;;;;;;;;;;;19.90;70.86;99280.02;1687584;84;21060;-73
2022/07/30 01:23:24;;;;;;;;;;;;;;;19.91;70.74;99274.92;1698586;83;20428;-75
2022/07/30 01:26:01;;;;;;;;;;;;;;;19.90;70.72;99273.27;1698833;83;20155;-74
2022/07/30 01:28:31;;;;;;;;;;;;;;;19.91;70.79;99276.28;1672946;84;20129;-74
2022/07/30 01:30:57;;;;;;;;;;;;;;;19.94;70.77;99278.52;1696403;83;20091;-75
2022/07/30 01:33:24;;;;;;;;;;;;;;;19.94;70.68;99273.11;1698855;83;21621;-74
2022/07/30 01:35:51;;;;;;;;;;;;;;;19.94;70.58;99267.19;1698759;83;20172;-75
2022/07/30 01:38:21;;;;;;;;;;;;;;;19.94;70.54;99268.54;1698796;83;20095;-76
2022/07/30 01:40:51;;;;;;;;;;;;;;;19.96;70.48;99269.13;1672939;84;20107;-75
2022/07/30 01:43:17;;;;;;;;;;;;;;;19.96;70.44;99266.95;1697629;83;20210;-74
2022/07/30 01:45:46;;;;;;;;;;;;;;;19.95;70.52;99260.72;1698835;83;21200;-74
2022/07/30 01:48:14;;;;;;;;;;;;;;;19.96;70.57;99261.55;1672401;84;20119;-76
2022/07/30 01:50:43;;;;;;;;;;;;;;;19.96;70.59;99262.89;1698714;83;20119;-73
2022/07/30 01:53:15;;;;;;;;;;;;;;;19.97;70.62;99268.59;1696409;83;20210;-74
2022/07/30 01:55:42;;;;;;;;;;;;;;;19.99;70.60;99270.00;1697976;83;20142;-74
2022/07/30 01:58:11;;;;;;;;;;;;;;;20.01;70.56;99271.93;1666656;84;21172;-74
2022/07/30 02:00:42;;;;;;;;;;;;;;;20.00;70.50;99268.10;1689021;83;20445;-74
2022/07/30 02:03:10;;;;;;;;;;;;;;;19.97;70.56;99265.34;1696746;83;20144;-73
2022/07/30 02:05:37;;;;;;;;;;;;;;;19.96;70.60;99270.99;1698891;83;20138;-75
2022/07/30 02:08:10;;;;;;;;;;;;;;;19.97;70.65;99269.39;1699273;83;20425;-73
2022/07/30 02:10:47;;;;;;;;;;;;;;;19.97;70.59;99268.59;1673153;84;20731;-74
2022/07/30 02:13:22;;;;;;;;;;;;;;;19.94;70.54;99274.46;1697772;83;20135;-74
2022/07/30 02:15:55;;;;;;;;;;;;;;;19.87;70.69;99266.98;1701092;83;20095;-75
2022/07/30 02:18:31;;;;;;;;;;;;;;;19.81;70.84;99263.38;1700124;83;20858;-75
2022/07/30 02:21:04;;;;;;;;;;;;;;;19.77;71.07;99267.59;1694839;83;20119;-74
2022/07/30 02:23:34;;;;;;;;;;;;;;;19.72;71.25;99263.42;1681569;84;21770;-74
2022/07/30 02:26:02;;;;;;;;;;;;;;;19.69;71.37;99263.88;1684253;84;20123;-73
2022/07/30 02:28:29;;;;;;;;;;;;;;;19.65;71.54;99265.42;1682420;84;20431;-73
2022/07/30 02:30:58;;;;;;;;;;;;;;;19.61;71.72;99265.58;1683611;83;20216;-74
2022/07/30 02:33:27;;;;;;;;;;;;;;;19.58;71.86;99268.22;1682892;84;20115;-74
2022/07/30 02:35:55;;;;;;;;;;;;;;;19.55;72.03;99270.02;1684983;84;21166;-74
2022/07/30 02:38:24;;;;;;;;;;;;;;;19.53;72.19;99265.91;1683018;84;20131;-76
2022/07/30 02:40:51;;;;;;;;;;;;;;;19.47;72.36;99259.60;1684843;84;20425;-74
2022/07/30 02:43:19;;;;;;;;;;;;;;;19.45;72.57;99263.03;1684140;84;20154;-74
2022/07/30 02:45:46;;;;;;;;;;;;;;;19.41;72.71;99259.17;1684915;84;20167;-74
2022/07/30 02:48:13;;;;;;;;;;;;;;;19.39;72.85;99262.64;1683772;84;21104;-74
2022/07/30 02:50:39;;;;;;;;;;;;;;;19.36;72.95;99252.28;1682613;84;20123;-74
2022/07/30 02:53:08;;;;;;;;;;;;;;;19.31;73.15;99251.33;1684358;84;20211;-74
2022/07/30 02:55:35;;;;;;;;;;;;;;;19.28;73.33;99254.48;1684517;84;20686;-74
2022/07/30 02:58:03;;;;;;;;;;;;;;;19.25;73.42;99249.55;1684954;84;20460;-73
2022/07/30 03:00:30;;;;;;;;;;;;;;;19.21;73.62;99249.73;1683736;84;21828;-75
2022/07/30 03:02:59;;;;;;;;;;;;;;;19.17;73.72;99249.36;1684767;84;20107;-74
2022/07/30 03:05:26;;;;;;;;;;;;;;;19.16;73.87;99250.95;1683090;84;20447;-74
2022/07/30 03:07:55;;;;;;;;;;;;;;;19.13;74.00;99244.66;1684671;84;20169;-75
2022/07/30 03:10:23;;;;;;;;;;;;;;;19.10;74.16;99244.08;1684258;84;20135;-74
2022/07/30 03:12:50;;;;;;;;;;;;;;;19.09;74.30;99246.98;1684656;84;21288;-74
2022/07/30 03:15:18;;;;;;;;;;;;;;;19.10;74.41;99247.30;1683756;84;20090;-76
2022/07/30 03:17:47;;;;;;;;;;;;;;;19.11;74.46;99248.40;1683100;84;20143;-75
2022/07/30 03:20:16;;;;;;;;;;;;;;;19.12;74.46;99250.58;1664929;84;20627;-74
2022/07/30 03:22:46;;;;;;;;;;;;;;;19.14;74.50;99253.06;1684407;84;20122;-74
2022/07/30 03:25:15;;;;;;;;;;;;;;;19.15;74.56;99254.68;1684855;84;21189;-74
2022/07/30 03:27:43;;;;;;;;;;;;;;;19.20;74.51;99258.33;1684934;84;20121;-76
2022/07/30 03:30:09;;;;;;;;;;;;;;;19.25;74.43;99254.41;1683662;84;20439;-74
2022/07/30 03:32:36;;;;;;;;;;;;;;;19.32;74.28;99261.87;1665845;84;20684;-75
2022/07/30 03:35:05;;;;;;;;;;;;;;;19.35;74.08;99265.98;1684442;84;20472;-75
2022/07/30 03:37:33;;;;;;;;;;;;;;;19.38;74.12;99265.55;1655446;85;21154;-74
2022/07/30 03:39:59;;;;;;;;;;;;;;;19.47;73.97;99270.39;1672320;84;20098;-74
2022/07/30 03:42:26;;;;;;;;;;;;;;;19.54;73.76;99267.58;1682723;84;20201;-74
2022/07/30 03:44:53;;;;;;;;;;;;;;;19.58;73.55;99269.56;1685020;84;20110;-74
2022/07/30 03:47:20;;;;;;;;;;;;;;;19.61;73.37;99266.92;1682554;84;20078;-75
2022/07/30 03:49:47;;;;;;;;;;;;;;;19.64;73.22;99259.72;1684862;84;21860;-75
2022/07/30 03:52:15;;;;;;;;;;;;;;;19.67;73.12;99261.95;1684935;84;20457;-75
2022/07/30 03:54:42;;;;;;;;;;;;;;;19.71;73.07;99261.77;1683892;84;20118;-75
2022/07/30 03:57:27;;;;;;;;;;;;;;;19.76;73.00;99255.69;1684501;84;20187;-74
2022/07/30 03:59:53;;;;;;;;;;;;;;;19.84;72.91;99248.59;1685021;84;20099;-74
2022/07/30 04:02:20;;;;;;;;;;;;;;;19.95;72.66;99247.74;1684342;84;21881;-75
2022/07/30 04:05:08;;;;;;;;;;;;;;;20.04;72.46;99247.16;1666202;84;20095;-75
2022/07/30 04:07:35;;;;;;;;;;;;;;;20.14;72.01;99247.91;1676490;84;20086;-74
2022/07/30 04:10:01;;;;;;;;;;;;;;;20.18;71.87;99245.84;1684983;84;20496;-74
2022/07/30 04:12:34;;;;;;;;;;;;;;;20.23;71.73;99240.57;1682504;84;20118;-75
2022/07/30 04:15:01;;;;;;;;;;;;;;;20.27;71.49;99239.58;1684965;84;21565;-74
2022/07/30 04:17:45;;;;;;;;;;;;;;;20.26;71.49;99243.33;1681762;84;20118;-74
2022/07/30 04:20:16;;;;;;;;;;;;;;;20.23;71.67;99241.09;1684874;84;20122;-74
2022/07/30 04:22:44;;;;;;;;;;;;;;;20.33;71.77;99237.28;1684775;84;20122;-73
2022/07/30 04:25:10;;;;;;;;;;;;;;;20.47;71.50;99241.34;1661448;84;20102;-74
2022/07/30 04:27:38;;;;;;;;;;;;;;;20.61;71.01;99241.88;1682389;84;20131;-74
2022/07/30 04:30:06;;;;;;;;;;;;;;;20.81;70.56;99241.74;1683475;84;20094;-74
2022/07/30 04:32:34;;;;;;;;;;;;;;;21.03;70.13;99241.88;1682676;83;20075;-76
2022/07/30 04:35:08;;;;;;;;;;;;;;;21.23;69.20;99245.49;1684265;84;20129;-74
2022/07/30 04:37:38;;;;;;;;;;;;;;;21.39;68.55;99245.52;1680201;84;20460;-74
2022/07/30 04:40:06;;;;;;;;;;;;;;;21.63;67.95;99250.23;1684317;84;22007;-74
2022/07/30 04:42:32;;;;;;;;;;;;;;;22.09;67.16;99251.21;1684614;84;20111;-75
2022/07/30 04:45:02;;;;;;;;;;;;;;;22.65;65.42;99249.25;1684466;84;20087;-75
2022/07/30 04:47:31;;;;;;;;;;;;;;;23.04;63.59;99248.05;1683574;84;20102;-76
2022/07/30 04:49:59;;;;;;;;;;;;;;;23.11;62.62;99244.58;1680627;84;20119;-74
2022/07/30 04:52:27;;;;;;;;;;;;;;;23.05;62.33;99245.59;1684922;84;20550;-74
2022/07/30 04:54:56;;;;;;;;;;;;;;;22.97;61.99;99241.98;1661577;85;20103;-74
2022/07/30 04:57:24;;;;;;;;;;;;;;;22.81;62.28;99240.22;1683206;84;20094;-74
2022/07/30 04:59:50;;;;;;;;;;;;;;;22.97;62.36;99235.20;1684896;84;20666;-76
2022/07/30 05:02:18;;;;;;;;;;;;;;;23.08;61.88;99230.16;1684867;84;20487;-74
2022/07/30 05:04:44;;;;;;;;;;;;;;;23.09;61.63;99227.75;1682960;84;21118;-75
2022/07/30 05:07:10;;;;;;;;;;;;;;;23.07;61.47;99225.02;1669961;84;20119;-75
2022/07/30 05:09:37;;;;;;;;;;;;;;;23.01;61.43;99216.00;1682868;84;20126;-74
2022/07/30 05:12:06;;;;;;;;;;;;;;;23.03;61.51;99207.59;1659911;85;20098;-73
2022/07/30 05:14:33;;;;;;;;;;;;;;;23.11;61.47;99210.66;1684917;84;20098;-70
2022/07/30 05:17:00;;;;;;;;;;;;;;;23.38;61.10;99216.09;1682798;84;21197;-71
2022/07/30 05:19:28;;;;;;;;;;;;;;;23.77;60.65;99204.42;1683994;84;20090;-72
2022/07/30 05:21:56;;;;;;;;;;;;;;;24.32;59.31;99203.39;1677973;83;20146;-72
2022/07/30 05:24:23;;;;;;;;;;;;;;;25.11;57.09;99204.40;1709031;83;20099;-72
2022/07/30 05:26:52;;;;;;;;;;;;;;;25.92;54.97;99203.82;1698321;83;20182;-72
2022/07/30 05:29:20;;;;;;;;;;;;;;;26.86;52.81;99209.74;1696485;83;21609;-71
2022/07/30 05:32:02;;;;;;;;;;;;;;;27.48;50.57;99198.09;1696802;83;20112;-74
2022/07/30 05:34:29;;;;;;;;;;;;;;;28.10;48.79;99195.88;1712428;83;20089;-69
2022/07/30 05:36:55;;;;;;;;;;;;;;;28.76;47.42;99197.22;1689231;84;20271;-71
2022/07/30 05:39:23;;;;;;;;;;;;;;;29.42;45.87;99198.96;1689434;84;20172;-72
2022/07/30 05:41:55;;;;;;;;;;;;;;;29.80;43.90;99201.89;1705620;84;21137;-71
2022/07/30 05:44:24;;;;;;;;;;;;;;;30.09;43.40;99197.50;1691919;84;20166;-72
2022/07/30 05:46:51;;;;;;;;;;;;;;;30.83;41.96;99186.59;1698921;84;20226;-70
2022/07/30 05:49:17;;;;;;;;;;;;;;;31.25;40.50;99188.09;1696135;84;20189;-73
2022/07/30 05:51:43;;;;;;;;;;;;;;;30.53;41.41;99202.62;1700348;84;20206;-72
2022/07/30 05:54:12;;;;;;;;;;;;;;;29.89;42.44;99212.41;1705944;84;21561;-71
2022/07/30 05:56:43;;;;;;;;;;;;;;;29.42;43.17;99216.22;1690935;84;20103;-72
2022/07/30 05:59:12;;;;;;;;;;;;;;;28.76;44.28;99221.85;1701436;84;20187;-72
2022/07/30 06:02:00;;;;;;;;;;;;;;;28.95;44.82;99218.58;1698562;84;20175;-71
2022/07/30 06:04:29;;;;;;;;;;;;;;;29.96;43.20;99224.59;1699523;83;20167;-70
2022/07/30 06:06:57;;;;;;;;;;;;;;;30.89;41.36;99221.06;1679231;85;21762;-70
2022/07/30 06:09:24;;;;;;;;;;;;;;;31.78;39.35;99212.89;1685862;84;20106;-70
2022/07/30 06:11:50;;;;;;;;;;;;;;;32.36;37.55;99207.41;1708180;84;20138;-71
2022/07/30 06:14:17;;;;;;;;;;;;;;;32.23;37.33;99206.96;1703139;84;20122;-71
2022/07/30 06:16:43;;;;;;;;;;;;;;;32.24;37.69;99200.34;1682716;84;20417;-69
2022/07/30 06:19:11;;;;;;;;;;;;;;;32.60;37.33;99207.02;1700841;84;22266;-71
2022/07/30 06:21:42;;;;;;;;;;;;;;;33.10;36.61;99195.02;1692337;84;20224;-69
2022/07/30 06:24:11;;;;;;;;;;;;;;;33.63;35.04;99203.50;1692427;84;20204;-68
2022/07/30 06:26:39;;;;;;;;;;;;;;;33.62;35.02;99200.48;1677092;84;20338;-71
2022/07/30 06:29:08;;;;;;;;;;;;;;;33.54;35.05;99190.50;1695864;84;20122;-71
2022/07/30 06:31:37;;;;;;;;;;;;;;;33.73;35.22;99192.92;1676996;84;22160;-69
2022/07/30 06:34:04;;;;;;;;;;;;;;;34.25;33.77;99192.73;1674513;85;20087;-69
2022/07/30 06:36:32;;;;;;;;;;;;;;;34.18;34.20;99195.22;1678257;84;20170;-70
2022/07/30 06:39:02;;;;;;;;;;;;;;;34.81;33.10;99196.38;1677027;84;20177;-70
2022/07/30 06:41:47;;;;;;;;;;;;;;;35.16;32.22;99194.19;1668505;84;20206;-69
2022/07/30 06:44:14;;;;;;;;;;;;;;;35.32;32.15;99187.70;1640880;87;21736;-69
2022/07/30 06:46:48;;;;;;;;;;;;;;;35.61;31.68;99185.41;1676695;83;20189;-70
2022/07/30 06:49:16;;;;;;;;;;;;;;;36.08;31.43;99183.08;1679413;85;20103;-70
2022/07/30 06:51:45;;;;;;;;;;;;;;;36.68;30.31;99175.33;1701030;84;20176;-69
2022/07/30 06:54:11;;;;;;;;;;;;;;;37.19;29.62;99179.23;1695993;83;20445;-71
2022/07/30 06:56:49;;;;;;;;;;;;;;;37.19;29.28;99170.91;1698859;84;21232;-72
2022/07/30 06:59:16;;;;;;;;;;;;;;;37.29;28.79;99166.23;1696638;84;20121;-71
2022/07/30 07:01:45;;;;;;;;;;;;;;;37.32;28.56;99166.92;1692705;84;20420;-71
2022/07/30 07:04:11;;;;;;;;;;;;;;;37.15;28.86;99164.47;1662133;84;20123;-71
2022/07/30 07:06:38;;;;;;;;;;;;;;;37.13;29.31;99161.83;1680085;84;20137;-73
2022/07/30 07:09:06;;;;;;;;;;;;;;;37.26;29.03;99163.38;1683371;84;21138;-69
2022/07/30 07:11:36;;;;;;;;;;;;;;;37.24;28.12;99162.91;1688414;84;20519;-70
2022/07/30 07:14:04;;;;;;;;;;;;;;;37.21;28.01;99160.27;1686488;84;20432;-68
2022/07/30 07:16:33;;;;;;;;;;;;;;;37.21;28.04;99157.49;1684841;84;20131;-68
2022/07/30 07:19:02;;;;;;;;;;;;;;;37.39;28.22;99158.00;1687036;84;20453;-69
2022/07/30 07:21:30;;;;;;;;;;;;;;;37.56;27.46;99158.51;1684805;84;21890;-72
2022/07/30 07:24:02;;;;;;;;;;;;;;;38.14;25.38;99154.07;1656188;84;20185;-72
2022/07/30 07:26:31;;;;;;;;;;;;;;;37.99;25.13;99154.08;1649569;85;20434;-70
2022/07/30 07:28:57;;;;;;;;;;;;;;;37.60;25.36;99153.03;1651961;85;20180;-71
2022/07/30 07:31:26;;;;;;;;;;;;;;;37.16;25.98;99150.81;1652852;84;20290;-71
2022/07/30 07:33:53;;;;;;;;;;;;;;;36.98;26.51;99152.28;1651993;85;21118;-70
2022/07/30 07:36:21;;;;;;;;;;;;;;;37.17;26.32;99159.38;1652825;85;20211;-71
2022/07/30 07:38:48;;;;;;;;;;;;;;;37.41;25.99;99150.97;1651204;85;20144;-72
2022/07/30 07:41:15;;;;;;;;;;;;;;;37.70;25.24;99149.14;1653982;85;20101;-72
2022/07/30 07:43:42;;;;;;;;;;;;;;;37.85;25.28;99153.11;1652037;85;20088;-72
2022/07/30 07:46:15;;;;;;;;;;;;;;;37.97;25.11;99148.06;1652206;85;20124;-72
2022/07/30 07:48:42;;;;;;;;;;;;;;;38.15;25.06;99149.30;1650636;85;20113;-72
2022/07/30 07:51:19;;;;;;;;;;;;;;;38.42;24.44;99156.73;1654129;85;20134;-71
2022/07/30 07:53:47;;;;;;;;;;;;;;;38.35;24.81;99146.04;1653968;85;20163;-71
2022/07/30 07:56:14;;;;;;;;;;;;;;;38.38;24.57;99148.10;1653239;85;20122;-71
2022/07/30 07:58:40;;;;;;;;;;;;;;;38.22;24.42;99150.88;1654039;85;21507;-73
2022/07/30 08:01:10;;;;;;;;;;;;;;;38.12;24.83;99143.10;1654829;84;20093;-72
2022/07/30 08:03:55;;;;;;;;;;;;;;;38.14;25.15;99134.63;1652458;85;20148;-74
2022/07/30 08:06:40;;;;;;;;;;;;;;;38.45;24.61;99142.70;1651958;85;20182;-76
2022/07/30 08:09:08;;;;;;;;;;;;;;;38.22;24.83;99142.55;1639040;86;20170;-73
2022/07/30 08:11:43;;;;;;;;;;;;;;;38.76;23.99;99130.93;1657979;85;22044;-73
2022/07/30 08:14:15;;;;;;;;;;;;;;;39.48;23.83;99132.56;1656297;84;20089;-74
2022/07/30 08:16:48;;;;;;;;;;;;;;;39.83;23.55;99135.20;1636098;85;20136;-73
2022/07/30 08:19:17;;;;;;;;;;;;;;;40.24;22.94;99129.31;1652923;85;20889;-73
2022/07/30 08:21:45;;;;;;;;;;;;;;;40.08;22.63;99131.67;1654470;84;20101;-73
2022/07/30 08:24:14;;;;;;;;;;;;;;;39.81;22.36;99130.60;1674589;84;21183;-73
2022/07/30 08:26:40;;;;;;;;;;;;;;;39.72;22.18;99128.06;1678816;84;20087;-73
2022/07/30 08:29:08;;;;;;;;;;;;;;;39.43;21.95;99138.43;1678761;84;20107;-73
2022/07/30 08:31:35;;;;;;;;;;;;;;;39.01;22.47;99127.84;1678784;84;20075;-73
2022/07/30 08:34:03;;;;;;;;;;;;;;;38.89;22.63;99127.41;1678771;84;20099;-73
2022/07/30 08:36:29;;;;;;;;;;;;;;;39.41;22.59;99132.44;1678784;84;21828;-73
2022/07/30 08:38:57;;;;;;;;;;;;;;;40.37;21.05;99130.12;1678701;84;20515;-74
2022/07/30 08:41:24;;;;;;;;;;;;;;;41.05;20.25;99114.55;1678864;84;20118;-74
2022/07/30 08:43:50;;;;;;;;;;;;;;;41.60;19.44;99113.34;1678846;84;20127;-74
2022/07/30 08:46:18;;;;;;;;;;;;;;;41.78;18.71;99115.72;1678705;84;20146;-74
2022/07/30 08:48:55;;;;;;;;;;;;;;;41.19;18.61;99114.71;1677042;84;21105;-72
2022/07/30 08:51:22;;;;;;;;;;;;;;;40.51;19.16;99128.16;1664990;85;20115;-73
2022/07/30 08:53:50;;;;;;;;;;;;;;;40.24;19.33;99118.17;1676775;84;20103;-73
2022/07/30 08:56:18;;;;;;;;;;;;;;;40.15;19.68;99119.05;1678668;84;20138;-72
2022/07/30 08:58:44;;;;;;;;;;;;;;;39.92;19.88;99121.81;1678800;84;20151;-73
2022/07/30 09:01:12;;;;;;;;;;;;;;;40.02;19.23;99117.81;1678731;84;20428;-73
2022/07/30 09:03:39;;;;;;;;;;;;;;;39.93;19.57;99123.44;1678799;84;20094;-73
2022/07/30 09:06:06;;;;;;;;;;;;;;;39.95;19.21;99113.53;1678868;84;20115;-73
2022/07/30 09:08:33;;;;;;;;;;;;;;;39.93;19.69;99115.89;1678766;84;20098;-73
2022/07/30 09:11:01;;;;;;;;;;;;;;;39.77;18.40;99108.84;1678776;84;20429;-73
2022/07/30 09:13:30;;;;;;;;;;;;;;;38.97;19.29;99129.75;1678693;84;21160;-72
2022/07/30 09:15:59;;;;;;;;;;;;;;;38.76;20.18;99121.20;1678973;84;20478;-72
2022/07/30 09:18:28;;;;;;;;;;;;;;;38.88;19.23;99126.61;1677664;84;20086;-73
2022/07/30 09:20:54;;;;;;;;;;;;;;;38.66;19.56;99115.38;1678741;84;20127;-73
2022/07/30 09:23:21;;;;;;;;;;;;;;;38.87;19.43;99123.63;1670846;84;20077;-73
2022/07/30 09:25:59;;;;;;;;;;;;;;;38.47;19.83;99109.80;1635111;86;21054;-73
2022/07/30 09:28:43;;;;;;;;;;;;;;;37.97;19.67;99118.33;1653839;85;20088;-74
2022/07/30 09:31:22;;;;;;;;;;;;;;;36.85;21.20;99109.09;1653866;85;20089;-72
2022/07/30 09:34:25;;;;;;;;;;;;;;;35.97;22.25;99114.07;1653952;85;20698;-72
2022/07/30 09:37:06;;;;;;;;;;;;;;;35.22;22.98;99127.27;1656652;84;20145;-73
2022/07/30 09:39:38;;;;;;;;;;;;;;;34.54;23.49;99121.75;1650712;84;40092;-73
2022/07/30 09:42:24;;;;;;;;;;;;;;;34.02;24.78;99115.72;1637127;85;20105;-73
2022/07/30 09:45:07;;;;;;;;;;;;;;;33.63;25.10;99113.30;1653861;85;20127;-73
2022/07/30 09:47:36;;;;;;;;;;;;;;;33.49;25.91;99115.42;1653234;85;20089;-72
2022/07/30 09:50:06;;;;;;;;;;;;;;;33.20;25.70;99099.60;1653893;85;20105;-72
2022/07/30 09:52:32;;;;;;;;;;;;;;;33.03;26.09;99113.95;1653802;85;21324;-73
2022/07/30 09:54:59;;;;;;;;;;;;;;;32.90;26.61;99101.98;1653929;85;20080;-73
2022/07/30 09:57:27;;;;;;;;;;;;;;;32.53;26.94;99097.94;1653842;85;20153;-73
2022/07/30 09:59:56;;;;;;;;;;;;;;;32.14;27.74;99102.14;1653846;85;20093;-74
2022/07/30 10:02:30;;;;;;;;;;;;;;;31.86;27.61;99100.74;1653881;85;20157;-73
2022/07/30 10:05:14;;;;;;;;;;;;;;;31.58;28.69;99087.20;1674121;85;21358;-72
2022/07/30 10:07:51;;;;;;;;;;;;;;;31.45;28.81;99095.50;1653870;85;20089;-73
2022/07/30 10:10:21;;;;;;;;;;;;;;;31.27;29.00;99081.43;1653932;85;20089;-72
2022/07/30 10:12:51;;;;;;;;;;;;;;;31.21;29.18;99077.22;1653802;85;20168;-73
2022/07/30 10:15:19;;;;;;;;;;;;;;;31.18;29.43;99073.95;1653881;85;20157;-73
2022/07/30 10:17:48;;;;;;;;;;;;;;;31.15;29.54;99070.48;1673846;84;20212;-73
2022/07/30 10:20:21;;;;;;;;;;;;;;;31.20;30.31;99065.41;1654545;84;20109;-73
2022/07/30 10:23:06;;;;;;;;;;;;;;;31.26;29.63;99066.09;1656165;84;20097;-73
2022/07/30 10:25:39;;;;;;;;;;;;;;;31.17;29.83;99074.27;1678945;84;20115;-73
2022/07/30 10:28:23;;;;;;;;;;;;;;;30.97;29.67;99067.38;1678971;84;20172;-72
2022/07/30 10:30:52;;;;;;;;;;;;;;;30.80;30.28;99058.16;1678819;84;20449;-72
2022/07/30 10:33:19;;;;;;;;;;;;;;;30.73;31.15;99050.38;1678930;84;20502;-72
2022/07/30 10:35:47;;;;;;;;;;;;;;;30.81;31.25;99048.26;1679319;84;20094;-73
2022/07/30 10:38:13;;;;;;;;;;;;;;;30.87;30.83;99057.18;1679410;84;20115;-72
2022/07/30 10:40:57;;;;;;;;;;;;;;;30.70;30.06;99055.11;1678842;84;20087;-73
2022/07/30 10:43:32;;;;;;;;;;;;;;;30.55;30.42;99046.70;1678891;84;21286;-72
2022/07/30 10:46:31;;;;;;;;;;;;;;;30.56;30.60;99041.44;1678717;84;20432;-73
2022/07/30 10:49:10;;;;;;;;;;;;;;;30.60;31.23;99033.96;1687478;83;20143;-72
2022/07/30 10:51:45;;;;;;;;;;;;;;;30.70;31.37;99047.44;1679457;84;20226;-72
2022/07/30 10:54:34;;;;;;;;;;;;;;;30.70;31.33;99024.10;1678903;84;20099;-73
2022/07/30 10:57:13;;;;;;;;;;;;;;;30.66;32.15;99036.84;1678901;84;21174;-72
2022/07/30 10:59:57;;;;;;;;;;;;;;;30.70;31.63;99022.73;1678821;84;20463;-72
2022/07/30 11:02:26;;;;;;;;;;;;;;;30.66;31.71;99028.02;1678815;84;20425;-73
2022/07/30 11:05:19;;;;;;;;;;;;;;;30.54;31.57;99025.03;1678758;84;20655;-73
2022/07/30 11:07:45;;;;;;;;;;;;;;;30.44;31.79;99027.47;1678950;84;20098;-73
2022/07/30 11:10:37;;;;;;;;;;;;;;;30.46;32.51;99020.29;1678832;84;21545;-73
2022/07/30 11:13:05;;;;;;;;;;;;;;;30.41;32.15;99023.97;1678821;84;20126;-72
2022/07/30 11:15:55;;;;;;;;;;;;;;;30.31;32.35;99014.58;1678872;84;20107;-72
2022/07/30 11:18:23;;;;;;;;;;;;;;;30.29;32.53;99015.46;1677807;84;20489;-73
2022/07/30 11:21:10;;;;;;;;;;;;;;;30.25;32.39;99021.30;1678822;84;20136;-72
2022/07/30 11:23:38;;;;;;;;;;;;;;;30.20;32.43;99013.19;1676311;83;21167;-72
2022/07/30 11:26:04;;;;;;;;;;;;;;;30.08;32.89;99010.19;1653914;85;20426;-72
2022/07/30 11:28:43;;;;;;;;;;;;;;;30.06;33.59;99014.36;1654039;85;20181;-72
2022/07/30 11:31:26;;;;;;;;;;;;;;;30.08;33.46;99007.44;1654017;85;20089;-72
2022/07/30 11:33:52;;;;;;;;;;;;;;;30.15;34.11;99017.42;1653171;85;20140;-73
2022/07/30 11:36:18;;;;;;;;;;;;;;;30.16;33.50;99027.28;1653964;85;21147;-73
2022/07/30 11:38:53;;;;;;;;;;;;;;;30.12;32.99;99008.98;1653972;85;20077;-73
2022/07/30 11:41:21;;;;;;;;;;;;;;;30.07;33.53;99015.41;1653951;84;20089;-73
2022/07/30 11:43:58;;;;;;;;;;;;;;;29.99;34.04;99007.91;1653973;85;20089;-73
2022/07/30 11:46:25;;;;;;;;;;;;;;;29.97;34.24;98999.19;1651968;85;20450;-73
2022/07/30 11:49:03;;;;;;;;;;;;;;;29.95;34.20;98997.32;1653518;85;20555;-73
2022/07/30 11:51:40;;;;;;;;;;;;;;;29.93;34.43;99003.67;1637176;85;20097;-71
2022/07/30 11:54:09;;;;;;;;;;;;;;;29.86;33.82;99009.56;1653992;85;20693;-73
2022/07/30 11:56:36;;;;;;;;;;;;;;;29.79;34.39;99002.33;1653929;85;20126;-73
2022/07/30 11:59:05;;;;;;;;;;;;;;;29.71;35.33;98994.79;1653972;85;20089;-73
2022/07/30 12:01:32;;;;;;;;;;;;;;;29.68;34.17;98997.32;1653840;85;21578;-73
2022/07/30 12:04:03;;;;;;;;;;;;;;;29.61;34.36;98984.59;1653918;85;20165;-72
2022/07/30 12:06:31;;;;;;;;;;;;;;;29.59;35.39;98979.41;1654005;85;20125;-72
2022/07/30 12:08:58;;;;;;;;;;;;;;;29.57;34.78;98983.56;1653884;85;20452;-72
2022/07/30 12:11:27;;;;;;;;;;;;;;;29.49;34.77;98976.09;1653980;85;20117;-71
2022/07/30 12:13:56;;;;;;;;;;;;;;;29.43;35.36;98969.91;1719891;81;21315;-72
2022/07/30 12:16:23;;;;;;;;;;;;;;;29.44;36.02;98968.77;1699069;83;20150;-72
2022/07/30 12:18:51;;;;;;;;;;;;;;;29.46;35.92;98967.92;1698593;83;20119;-72
2022/07/30 12:21:19;;;;;;;;;;;;;;;29.42;35.81;98983.34;1699297;83;20218;-72
2022/07/30 12:23:57;;;;;;;;;;;;;;;29.39;35.42;98975.72;1699259;83;20471;-72
2022/07/30 12:26:30;;;;;;;;;;;;;;;29.33;35.76;98976.38;1696058;83;20758;-72
2022/07/30 12:28:58;;;;;;;;;;;;;;;29.31;36.07;98966.29;1665221;85;20120;-72
2022/07/30 12:31:25;;;;;;;;;;;;;;;29.35;36.44;98970.61;1676123;84;20127;-72
2022/07/30 12:33:52;;;;;;;;;;;;;;;29.32;36.10;98970.66;1676011;84;20115;-72
2022/07/30 12:36:30;;;;;;;;;;;;;;;29.25;36.48;98967.50;1676145;84;20087;-72
2022/07/30 12:38:56;;;;;;;;;;;;;;;29.20;36.14;98959.38;1676062;84;21154;-72
2022/07/30 12:41:42;;;;;;;;;;;;;;;29.16;36.07;98955.61;1676072;84;20112;-72
2022/07/30 12:44:09;;;;;;;;;;;;;;;29.18;36.95;98955.30;1676084;84;20110;-72
2022/07/30 12:46:40;;;;;;;;;;;;;;;29.19;36.54;98955.56;1675783;84;20422;-72
2022/07/30 12:49:06;;;;;;;;;;;;;;;29.17;36.77;98950.95;1675794;84;20099;-72
2022/07/30 12:51:34;;;;;;;;;;;;;;;29.17;36.63;98951.77;1666684;84;21157;-72
2022/07/30 12:54:01;;;;;;;;;;;;;;;29.19;36.26;98943.23;1696102;83;20103;-72
2022/07/30 12:56:29;;;;;;;;;;;;;;;29.17;36.56;98938.08;1638644;86;20171;-72
2022/07/30 12:58:57;;;;;;;;;;;;;;;29.23;36.24;98936.05;1676037;84;20115;-72
2022/07/30 13:01:41;;;;;;;;;;;;;;;29.30;36.23;98930.45;1676103;84;20119;-72
2022/07/30 13:04:10;;;;;;;;;;;;;;;29.36;36.87;98944.27;1676163;84;21169;-72